createdAt,value
2023-03-19T00:00:35.971Z,25.63
2023-03-19T00:03:02.590Z,27.30
2023-03-19T00:05:29.174Z,26.47
2023-03-19T00:07:56.065Z,27.30
2023-03-19T00:10:22.585Z,28.60
2023-03-19T00:12:49.039Z,29.20
2023-03-19T00:15:16.109Z,28.80
2023-03-19T00:17:43.073Z,27.27
2023-03-19T00:20:11.724Z,27.10
2023-03-19T00:22:38.486Z,27.53
2023-03-19T00:25:05.446Z,27.07
2023-03-19T00:27:31.985Z,28.20
2023-03-19T00:30:00.945Z,27.87
2023-03-19T00:32:27.969Z,28.20
2023-03-19T00:34:54.444Z,33.13
2023-03-19T00:37:20.904Z,30.97
2023-03-19T00:39:47.668Z,30.13
2023-03-19T00:42:14.179Z,32.83
2023-03-19T00:44:40.656Z,33.57
2023-03-19T00:47:07.328Z,29.17
2023-03-19T00:49:33.856Z,28.57
2023-03-19T00:52:00.361Z,30.97
2023-03-19T00:54:27.962Z,32.60
2023-03-19T00:56:54.447Z,34.80
2023-03-19T00:59:20.971Z,32.73
2023-03-19T01:01:48.011Z,32.80
2023-03-19T01:04:15.393Z,32.73
2023-03-19T01:06:45.017Z,30.90
2023-03-19T01:09:12.128Z,33.33
2023-03-19T01:11:39.075Z,32.17
2023-03-19T01:14:06.383Z,33.20
2023-03-19T01:16:34.728Z,35.17
2023-03-19T01:19:02.464Z,35.83
2023-03-19T01:21:31.082Z,32.87
2023-03-19T01:23:58.298Z,37.50
2023-03-19T01:26:24.967Z,32.77
2023-03-19T01:28:51.386Z,38.37
2023-03-19T01:31:17.981Z,34.30
2023-03-19T01:33:44.564Z,35.50
2023-03-19T01:36:11.325Z,39.07
2023-03-19T01:38:38.022Z,38.53
2023-03-19T01:41:04.571Z,38.60
2023-03-19T01:43:32.684Z,39.50
2023-03-19T01:46:02.488Z,41.20
2023-03-19T01:48:49.044Z,41.93
2023-03-19T01:51:17.444Z,42.93
2023-03-19T01:53:47.985Z,41.37
2023-03-19T01:56:16.295Z,41.63
2023-03-19T01:58:44.707Z,41.57
2023-03-19T02:01:11.356Z,42.90
2023-03-19T02:03:39.416Z,43.87
2023-03-19T02:06:06.559Z,42.37
2023-03-19T02:08:34.012Z,42.73
2023-03-19T02:11:02.100Z,44.47
2023-03-19T02:13:28.818Z,44.03
2023-03-19T02:15:55.414Z,43.23
2023-03-19T02:18:22.185Z,39.13
2023-03-19T02:21:06.973Z,43.37
2023-03-19T02:23:48.211Z,45.40
2023-03-19T02:26:17.291Z,43.30
2023-03-19T02:28:46.494Z,43.60
2023-03-19T02:31:13.852Z,41.27
2023-03-19T02:33:40.587Z,39.13
2023-03-19T02:36:10.863Z,44.00
2023-03-19T02:38:39.129Z,41.37
2023-03-19T02:41:08.367Z,44.87
2023-03-19T02:43:37.406Z,45.33
2023-03-19T02:46:07.336Z,46.63
2023-03-19T02:48:34.957Z,46.87
2023-03-19T02:51:01.719Z,44.10
2023-03-19T02:53:28.182Z,46.33
2023-03-19T02:55:54.656Z,43.93
2023-03-19T02:58:21.227Z,45.47
2023-03-19T03:00:47.864Z,47.30
2023-03-19T03:03:14.452Z,45.13
2023-03-19T03:05:40.921Z,47.23
2023-03-19T03:08:07.399Z,44.73
2023-03-19T03:10:34.149Z,44.93
2023-03-19T03:13:01.629Z,44.50
2023-03-19T03:15:28.235Z,44.80
2023-03-19T03:17:56.428Z,43.03
2023-03-19T03:20:23.525Z,41.03
2023-03-19T03:22:50.267Z,42.77
2023-03-19T03:25:16.828Z,43.43
2023-03-19T03:27:43.410Z,39.33
2023-03-19T03:30:10.790Z,40.33
2023-03-19T03:32:38.087Z,39.00
2023-03-19T03:35:06.130Z,38.57
2023-03-19T03:37:32.721Z,35.83
2023-03-19T03:39:59.774Z,37.97
2023-03-19T03:42:26.263Z,38.67
2023-03-19T03:44:52.728Z,35.40
2023-03-19T03:47:19.177Z,33.87
2023-03-19T03:49:45.692Z,36.10
2023-03-19T03:52:12.410Z,35.70
2023-03-19T03:54:39.052Z,34.67
2023-03-19T03:57:06.134Z,36.97
2023-03-19T03:59:32.604Z,35.30
2023-03-19T04:01:59.145Z,37.90
2023-03-19T04:04:26.601Z,37.10
2023-03-19T04:06:53.105Z,33.40
2023-03-19T04:09:19.620Z,35.73
2023-03-19T04:11:46.161Z,38.00
2023-03-19T04:14:13.119Z,36.90
2023-03-19T04:16:39.992Z,34.27
2023-03-19T04:19:07.718Z,32.47
2023-03-19T04:21:34.180Z,34.63
2023-03-19T04:24:02.203Z,31.63
2023-03-19T04:26:28.766Z,33.00
2023-03-19T04:28:55.216Z,32.13
2023-03-19T04:31:22.164Z,31.03
2023-03-19T04:33:49.291Z,35.27
2023-03-19T04:36:17.630Z,35.07
2023-03-19T04:38:44.109Z,34.60
2023-03-19T04:41:10.925Z,35.60
2023-03-19T04:43:37.413Z,34.37
2023-03-19T04:46:04.028Z,35.60
2023-03-19T04:48:30.646Z,35.80
2023-03-19T04:50:57.409Z,34.77
2023-03-19T04:53:25.664Z,37.07
2023-03-19T04:55:52.242Z,36.73
2023-03-19T04:58:19.011Z,36.37
2023-03-19T05:00:47.526Z,38.73
2023-03-19T05:03:15.217Z,36.60
2023-03-19T05:05:41.778Z,36.47
2023-03-19T05:08:09.393Z,38.53
2023-03-19T05:10:36.677Z,37.87
2023-03-19T05:13:03.636Z,37.70
2023-03-19T05:15:30.276Z,37.93
2023-03-19T05:17:56.818Z,37.63
2023-03-19T05:20:23.828Z,38.67
2023-03-19T05:22:52.395Z,36.00
2023-03-19T05:25:19.505Z,38.27
2023-03-19T05:27:46.226Z,38.57
2023-03-19T05:30:13.047Z,38.13
2023-03-19T05:32:40.761Z,36.80
2023-03-19T05:35:07.731Z,35.83
2023-03-19T05:37:34.250Z,36.07
2023-03-19T05:40:00.850Z,34.63
2023-03-19T05:42:27.306Z,33.47
2023-03-19T05:44:53.754Z,33.17
2023-03-19T05:47:20.231Z,30.67
2023-03-19T05:49:47.289Z,30.50
2023-03-19T05:52:13.934Z,28.37
2023-03-19T05:54:41.397Z,26.47
2023-03-19T05:57:08.128Z,27.87
2023-03-19T05:59:34.834Z,25.27
2023-03-19T06:02:01.737Z,28.50
2023-03-19T06:04:28.247Z,24.47
2023-03-19T06:06:54.714Z,23.80
2023-03-19T06:09:21.168Z,25.23
2023-03-19T06:11:47.659Z,23.40
2023-03-19T06:14:14.212Z,21.23
2023-03-19T06:16:40.904Z,21.30
2023-03-19T06:19:07.400Z,20.40
2023-03-19T06:21:33.869Z,20.90
2023-03-19T06:24:00.512Z,19.83
2023-03-19T06:26:27.498Z,17.97
2023-03-19T06:28:54.403Z,21.53
2023-03-19T06:31:21.386Z,20.50
2023-03-19T06:33:49.120Z,19.83
2023-03-19T06:36:15.660Z,19.83
2023-03-19T06:38:42.134Z,19.70
2023-03-19T06:41:08.785Z,22.30
2023-03-19T06:43:37.338Z,22.23
2023-03-19T06:46:05.003Z,19.77
2023-03-19T06:48:31.716Z,20.90
2023-03-19T06:50:58.265Z,23.67
2023-03-19T06:53:24.990Z,20.77
2023-03-19T06:55:51.463Z,23.20
2023-03-19T06:58:17.964Z,21.60
2023-03-19T07:00:44.586Z,24.83
2023-03-19T07:03:11.501Z,22.00
2023-03-19T07:05:38.031Z,18.60
2023-03-19T07:08:11.611Z,21.90
2023-03-19T07:10:39.364Z,19.67
2023-03-19T07:13:06.343Z,21.83
2023-03-19T07:15:33.148Z,22.00
2023-03-19T07:17:59.603Z,21.23
2023-03-19T07:20:26.190Z,21.43
2023-03-19T07:22:52.995Z,19.87
2023-03-19T07:25:19.552Z,20.50
2023-03-19T07:27:46.191Z,19.63
2023-03-19T07:30:13.676Z,20.57
2023-03-19T07:32:40.296Z,17.63
2023-03-19T07:35:08.056Z,17.20
2023-03-19T07:37:34.536Z,15.03
2023-03-19T07:40:01.061Z,13.90
2023-03-19T07:42:27.507Z,14.40
2023-03-19T07:44:53.959Z,13.30
2023-03-19T07:47:29.072Z,12.53
2023-03-19T07:49:56.692Z,11.60
2023-03-19T07:52:23.881Z,12.33
2023-03-19T07:54:50.683Z,11.83
2023-03-19T07:57:17.160Z,9.13
2023-03-19T07:59:43.626Z,8.40
2023-03-19T08:02:13.367Z,7.83
2023-03-19T08:04:40.550Z,8.27
2023-03-19T08:07:10.334Z,8.60
2023-03-19T08:09:37.601Z,8.53
2023-03-19T08:12:04.406Z,8.73
2023-03-19T08:14:31.086Z,7.27
2023-03-19T08:16:57.627Z,7.17
2023-03-19T08:19:24.194Z,7.20
2023-03-19T08:21:51.192Z,7.07
2023-03-19T08:24:18.761Z,6.63
2023-03-19T08:26:45.459Z,6.47
2023-03-19T08:29:12.325Z,6.90
2023-03-19T08:31:38.900Z,7.03
2023-03-19T08:34:10.673Z,6.90
2023-03-19T08:36:37.617Z,6.60
2023-03-19T08:39:04.313Z,6.53
2023-03-19T08:41:31.318Z,7.40
2023-03-19T08:43:57.800Z,6.40
2023-03-19T08:46:24.483Z,6.87
2023-03-19T08:48:51.058Z,6.93
2023-03-19T08:51:17.513Z,6.40
2023-03-19T08:53:43.974Z,6.40
2023-03-19T08:56:11.243Z,6.87
2023-03-19T08:58:38.117Z,5.90
2023-03-19T09:01:07.164Z,6.37
2023-03-19T09:03:33.698Z,5.90
2023-03-19T09:06:01.817Z,5.50
2023-03-19T09:08:29.336Z,5.77
2023-03-19T09:10:56.130Z,5.87
2023-03-19T09:13:23.379Z,5.60
2023-03-19T09:15:50.723Z,5.57
2023-03-19T09:18:17.599Z,6.07
2023-03-19T09:20:44.030Z,5.17
2023-03-19T09:23:10.493Z,5.53
2023-03-19T09:25:37.064Z,6.00
2023-03-19T09:28:03.710Z,5.70
2023-03-19T09:30:30.243Z,5.43
2023-03-19T09:32:57.026Z,4.97
2023-03-19T09:35:24.015Z,4.60
2023-03-19T09:37:51.986Z,4.90
2023-03-19T09:40:33.544Z,3.97
2023-03-19T09:43:18.657Z,4.23
2023-03-19T09:45:46.773Z,3.87
2023-03-19T09:48:19.742Z,3.60
2023-03-19T09:50:48.888Z,4.10
2023-03-19T09:53:18.356Z,3.10
2023-03-19T09:55:52.754Z,3.47
2023-03-19T09:58:26.251Z,3.67
2023-03-19T10:00:55.872Z,2.70
2023-03-19T10:03:35.357Z,2.80
2023-03-19T10:06:25.682Z,2.73
2023-03-19T10:09:01.053Z,2.80
2023-03-19T10:11:38.089Z,2.70
2023-03-19T10:14:42.539Z,2.50
2023-03-19T10:17:17.861Z,2.60
2023-03-19T10:19:55.810Z,2.77
2023-03-19T10:22:27.156Z,2.80
2023-03-19T10:24:55.251Z,3.20
2023-03-19T10:27:23.722Z,2.40
2023-03-19T10:29:50.198Z,2.30
2023-03-19T10:32:45.376Z,2.20
2023-03-19T10:35:20.571Z,2.60
2023-03-19T10:37:48.768Z,2.20
2023-03-19T10:40:21.895Z,2.33
2023-03-19T10:43:04.500Z,2.23
2023-03-19T10:45:38.975Z,2.20
2023-03-19T10:48:06.513Z,2.20
2023-03-19T10:50:36.770Z,2.00
2023-03-19T10:53:32.611Z,2.00
2023-03-19T10:56:18.961Z,1.83
2023-03-19T10:59:07.326Z,2.00
2023-03-19T11:01:35.970Z,2.10
2023-03-19T11:04:12.675Z,2.70
2023-03-19T11:06:39.798Z,2.30
2023-03-19T11:09:09.227Z,2.40
2023-03-19T11:11:42.614Z,2.50
2023-03-19T11:14:26.341Z,2.70
2023-03-19T11:17:18.789Z,2.50
2023-03-19T11:19:52.719Z,2.60
2023-03-19T11:22:24.759Z,3.03
2023-03-19T11:24:55.614Z,3.30
2023-03-19T11:27:34.993Z,3.13
2023-03-19T11:30:13.478Z,3.23
2023-03-19T11:33:07.094Z,3.30
2023-03-19T11:36:07.999Z,3.67
2023-03-19T11:38:57.123Z,3.73
2023-03-19T11:41:51.057Z,4.20
2023-03-19T11:44:28.299Z,3.47
2023-03-19T11:47:06.818Z,3.40
2023-03-19T11:49:50.770Z,3.57
2023-03-19T11:52:32.632Z,3.83
2023-03-19T11:55:23.660Z,3.13
2023-03-19T11:58:01.931Z,3.50
2023-03-19T12:00:31.475Z,3.90
2023-03-19T12:03:45.806Z,3.60
2023-03-19T12:07:03.410Z,3.60
2023-03-19T12:09:53.243Z,3.70
2023-03-19T12:12:49.049Z,3.70
2023-03-19T12:15:33.244Z,3.40
2023-03-19T12:18:08.928Z,3.77
2023-03-19T12:20:57.826Z,3.77
2023-03-19T12:23:57.661Z,3.53
2023-03-19T12:26:40.442Z,3.40
2023-03-19T12:29:09.828Z,3.67
2023-03-19T12:31:48.925Z,3.87
2023-03-19T12:34:38.523Z,3.93
2023-03-19T12:37:13.940Z,3.90
2023-03-19T12:39:55.854Z,3.97
2023-03-19T12:42:32.861Z,3.67
2023-03-19T12:45:01.026Z,4.13
2023-03-19T12:47:32.624Z,4.03
2023-03-19T12:50:08.552Z,4.13
2023-03-19T12:52:39.810Z,3.77
2023-03-19T12:55:12.391Z,3.40
2023-03-19T12:57:51.833Z,3.57
2023-03-19T13:00:21.678Z,3.73
2023-03-19T13:03:07.872Z,4.03
2023-03-19T13:05:41.793Z,5.03
2023-03-19T13:08:19.040Z,5.13
2023-03-19T13:10:45.568Z,5.10
2023-03-19T13:13:27.326Z,5.10
2023-03-19T13:15:58.207Z,5.13
2023-03-19T13:18:54.998Z,4.83
2023-03-19T13:21:31.530Z,4.47
2023-03-19T13:24:38.436Z,4.50
2023-03-19T13:27:07.267Z,4.57
2023-03-19T13:29:36.883Z,7.73
2023-03-19T13:32:09.080Z,5.63
2023-03-19T13:34:37.299Z,6.33
2023-03-19T13:37:18.417Z,4.90
2023-03-19T13:39:48.408Z,5.70
2023-03-19T13:42:41.328Z,5.40
2023-03-19T13:45:20.041Z,5.27
2023-03-19T13:47:49.100Z,5.90
2023-03-19T13:50:18.683Z,6.77
2023-03-19T13:52:45.097Z,5.80
2023-03-19T13:55:49.577Z,4.67
2023-03-19T13:58:43.462Z,4.70
2023-03-19T14:01:12.063Z,4.77
2023-03-19T14:03:56.685Z,5.30
2023-03-19T14:06:34.875Z,5.80
2023-03-19T14:09:01.611Z,5.63
2023-03-19T14:11:34.226Z,4.90
2023-03-19T14:14:06.432Z,5.90
2023-03-19T14:16:38.361Z,5.97
2023-03-19T14:19:11.577Z,5.73
2023-03-19T14:22:00.279Z,5.83
2023-03-19T14:27:33.095Z,6.00
2023-03-19T14:30:10.170Z,6.17
2023-03-19T14:32:41.136Z,6.80
2023-03-19T14:35:08.596Z,6.50
2023-03-19T14:37:38.039Z,6.37
2023-03-19T14:40:15.012Z,6.23
2023-03-19T14:43:06.552Z,6.90
2023-03-19T14:45:54.343Z,7.40
2023-03-19T14:48:32.803Z,7.57
2023-03-19T14:51:05.751Z,7.90
2023-03-19T14:53:44.720Z,7.67
2023-03-19T14:56:19.260Z,8.00
2023-03-19T14:58:56.899Z,8.33
2023-03-19T15:01:27.007Z,8.10
2023-03-19T15:04:00.383Z,8.03
2023-03-19T15:06:33.469Z,8.10
2023-03-19T15:09:02.308Z,8.30
2023-03-19T15:11:51.470Z,8.20
2023-03-19T15:14:39.997Z,8.20
2023-03-19T15:17:13.331Z,7.67
2023-03-19T15:19:40.298Z,8.13
2023-03-19T15:22:13.466Z,8.20
2023-03-19T15:24:39.951Z,8.10
2023-03-19T15:27:20.375Z,7.27
2023-03-19T15:29:49.279Z,6.90
2023-03-19T15:32:49.769Z,7.47
2023-03-19T15:35:23.449Z,7.97
2023-03-19T15:37:54.360Z,7.67
2023-03-19T15:40:22.712Z,8.63
2023-03-19T15:42:51.244Z,8.40
2023-03-19T15:45:24.350Z,8.30
2023-03-19T15:48:05.629Z,8.87
2023-03-19T15:50:36.452Z,9.30
2023-03-19T15:53:07.380Z,10.47
2023-03-19T15:55:35.997Z,11.27
2023-03-19T15:58:07.069Z,10.40
2023-03-19T16:00:39.770Z,10.73
2023-03-19T16:03:07.331Z,11.47
2023-03-19T16:05:34.052Z,13.40
2023-03-19T16:08:03.142Z,13.30
2023-03-19T16:10:40.951Z,16.07
2023-03-19T16:13:25.883Z,17.03
2023-03-19T16:16:03.564Z,17.97
2023-03-19T16:18:38.713Z,17.60
2023-03-19T16:21:09.237Z,18.57
2023-03-19T16:23:50.502Z,18.10
2023-03-19T16:26:25.919Z,18.27
2023-03-19T16:29:04.085Z,19.80
2023-03-19T16:31:33.981Z,19.43
2023-03-19T16:34:00.900Z,18.53
2023-03-19T16:36:33.281Z,17.30
2023-03-19T16:39:30.896Z,17.77
2023-03-19T16:42:27.533Z,17.63
2023-03-19T16:44:53.990Z,16.93
2023-03-19T16:47:22.644Z,17.13
2023-03-19T16:49:49.245Z,16.43
2023-03-19T16:52:19.916Z,17.07
2023-03-19T16:54:46.596Z,16.00
2023-03-19T16:57:14.231Z,17.70
2023-03-19T16:59:40.853Z,17.37
2023-03-19T17:02:14.223Z,18.23
2023-03-19T17:04:40.879Z,21.77
2023-03-19T17:07:08.451Z,24.67
2023-03-19T17:09:35.583Z,28.47
2023-03-19T17:12:03.310Z,20.03
2023-03-19T17:14:30.997Z,19.57
2023-03-19T17:16:58.015Z,19.13
2023-03-19T17:19:35.001Z,16.67
2023-03-19T17:22:02.318Z,16.83
2023-03-19T17:24:32.010Z,18.00
2023-03-19T17:27:00.692Z,16.73
2023-03-19T17:29:27.347Z,16.20
2023-03-19T17:31:56.708Z,16.30
2023-03-19T17:34:28.079Z,17.93
2023-03-19T17:36:57.342Z,16.73
2023-03-19T17:39:24.921Z,18.60
2023-03-19T17:41:51.646Z,19.60
2023-03-19T17:44:18.144Z,18.07
2023-03-19T17:46:46.368Z,17.80
2023-03-19T17:49:21.684Z,19.50
2023-03-19T17:51:48.256Z,18.60
2023-03-19T17:54:14.851Z,18.77
2023-03-19T17:56:43.400Z,18.77
2023-03-19T17:59:10.951Z,18.33
2023-03-19T18:01:38.274Z,18.43
2023-03-19T18:04:04.827Z,18.03
2023-03-19T18:06:34.739Z,18.33
2023-03-19T18:09:01.333Z,17.80
2023-03-19T18:11:27.785Z,17.93
2023-03-19T18:13:54.272Z,18.47
2023-03-19T18:16:31.922Z,17.20
2023-03-19T18:19:01.165Z,18.33
2023-03-19T18:21:28.371Z,17.90
2023-03-19T18:23:56.769Z,18.23
2023-03-19T18:26:24.103Z,19.97
2023-03-19T18:28:50.626Z,18.73
2023-03-19T18:31:19.298Z,22.17
2023-03-19T18:33:49.691Z,20.80
2023-03-19T18:36:18.886Z,19.27
2023-03-19T18:38:45.783Z,19.67
2023-03-19T18:41:18.626Z,20.50
2023-03-19T18:43:45.753Z,20.47
2023-03-19T18:46:14.432Z,24.63
2023-03-19T18:48:41.034Z,24.90
2023-03-19T18:51:10.716Z,25.10
2023-03-19T18:53:37.572Z,25.67
2023-03-19T18:56:07.839Z,26.50
2023-03-19T18:58:34.953Z,26.90
2023-03-19T19:01:04.372Z,25.73
2023-03-19T19:03:31.705Z,27.63
2023-03-19T19:05:58.166Z,28.10
2023-03-19T19:08:26.751Z,28.83
2023-03-19T19:10:58.987Z,27.83
2023-03-19T19:13:28.978Z,27.37
2023-03-19T19:15:55.843Z,28.67
2023-03-19T19:18:27.101Z,29.33
2023-03-19T19:20:54.038Z,28.40
2023-03-19T19:23:22.047Z,31.03
2023-03-19T19:25:51.042Z,30.70
2023-03-19T19:28:26.809Z,31.73
2023-03-19T19:30:55.579Z,33.87
2023-03-19T19:33:24.425Z,32.90
2023-03-19T19:35:52.118Z,34.97
2023-03-19T19:38:20.114Z,37.00
2023-03-19T19:40:49.933Z,35.87
2023-03-19T19:43:22.549Z,37.00
2023-03-19T19:45:51.633Z,36.77
2023-03-19T19:48:26.163Z,38.40
2023-03-19T19:50:53.757Z,36.03
2023-03-19T19:53:20.795Z,38.43
2023-03-19T19:55:47.462Z,37.10
2023-03-19T19:58:23.576Z,37.70
2023-03-19T20:01:02.266Z,37.07
2023-03-19T20:03:32.257Z,38.40
2023-03-19T20:05:59.938Z,37.30
2023-03-19T20:08:27.235Z,38.17
2023-03-19T20:10:54.439Z,39.43
2023-03-19T20:13:30.073Z,38.07
2023-03-19T20:15:58.472Z,37.90
2023-03-19T20:18:30.473Z,38.73
2023-03-19T20:20:58.186Z,37.90
2023-03-19T20:23:24.635Z,35.17
2023-03-19T20:25:51.728Z,33.83
2023-03-19T20:28:24.840Z,34.97
2023-03-19T20:30:53.984Z,36.77
2023-03-19T20:33:21.570Z,37.13
2023-03-19T20:35:48.441Z,38.60
2023-03-19T20:38:15.438Z,37.83
2023-03-19T20:40:53.569Z,38.40
2023-03-19T20:43:33.121Z,38.67
2023-03-19T20:46:02.588Z,37.50
2023-03-19T20:48:30.661Z,38.47
2023-03-19T20:50:58.341Z,37.40
2023-03-19T20:53:25.010Z,38.37
2023-03-19T20:55:52.271Z,37.30
2023-03-19T20:58:27.589Z,33.07
2023-03-19T21:00:56.437Z,33.77
2023-03-19T21:03:30.216Z,33.20
2023-03-19T21:06:02.266Z,33.00
2023-03-19T21:08:34.740Z,33.33
2023-03-19T21:11:01.809Z,33.60
2023-03-19T21:13:28.847Z,33.50
2023-03-19T21:15:55.827Z,30.17
2023-03-19T21:18:22.456Z,27.90
2023-03-19T21:20:53.900Z,25.33
2023-03-19T21:23:28.093Z,26.43
2023-03-19T21:25:54.624Z,24.43
2023-03-19T21:28:28.544Z,25.43
2023-03-19T21:30:55.051Z,23.83
2023-03-19T21:33:27.278Z,21.10
2023-03-19T21:35:54.812Z,22.70
2023-03-19T21:38:22.417Z,20.60
2023-03-19T21:40:50.519Z,22.70
2023-03-19T21:43:36.617Z,24.00
2023-03-19T21:46:17.563Z,22.43
2023-03-19T21:48:49.509Z,21.03
2023-03-19T21:51:16.620Z,19.50
2023-03-19T21:53:43.823Z,20.33
2023-03-19T21:56:22.228Z,21.13
2023-03-19T21:58:50.748Z,20.43
2023-03-19T22:01:20.688Z,19.03
2023-03-19T22:03:47.457Z,18.60
2023-03-19T22:06:14.240Z,17.23
2023-03-19T22:08:41.654Z,16.30
2023-03-19T22:11:17.645Z,17.53
2023-03-19T22:13:44.580Z,16.20
2023-03-19T22:16:23.907Z,17.90
2023-03-19T22:18:51.523Z,17.87
2023-03-19T22:21:20.335Z,17.13
2023-03-19T22:23:47.570Z,16.40
2023-03-19T22:26:29.962Z,17.87
2023-03-19T22:28:58.223Z,16.93
2023-03-19T22:31:24.920Z,17.30
2023-03-19T22:33:51.572Z,16.90
2023-03-19T22:36:18.410Z,17.23
2023-03-19T22:38:45.012Z,18.10
2023-03-19T22:41:25.184Z,18.23
2023-03-19T22:43:51.770Z,18.00
2023-03-19T22:46:18.997Z,18.83
2023-03-19T22:48:50.326Z,19.00
2023-03-19T22:51:19.112Z,18.47
2023-03-19T22:53:46.213Z,18.53
2023-03-19T22:56:14.039Z,18.20
2023-03-19T22:58:41.629Z,19.07
2023-03-19T23:01:28.913Z,19.20
2023-03-19T23:03:56.244Z,18.07
2023-03-19T23:06:30.637Z,19.77
2023-03-19T23:08:58.427Z,19.13
2023-03-19T23:11:25.617Z,18.53
2023-03-19T23:13:52.564Z,17.63
2023-03-19T23:16:23.451Z,17.50
2023-03-19T23:18:50.317Z,17.47
2023-03-19T23:21:18.331Z,14.40
2023-03-19T23:23:45.551Z,14.90
2023-03-19T23:26:25.418Z,15.60
2023-03-19T23:28:52.665Z,17.07
2023-03-19T23:31:19.982Z,15.67
2023-03-19T23:33:46.625Z,15.43
2023-03-19T23:36:13.424Z,16.20
2023-03-19T23:38:39.939Z,16.93
2023-03-19T23:41:07.322Z,15.50
2023-03-19T23:43:34.237Z,16.87
2023-03-19T23:46:01.080Z,16.47
2023-03-19T23:48:35.390Z,15.93
2023-03-19T23:51:02.408Z,16.03
2023-03-19T23:53:29.774Z,15.13
2023-03-19T23:56:03.144Z,15.63
2023-03-19T23:58:39.962Z,15.70
